Ust'- Njukzha, Russia
Current Conditions -  °F | °C
As of 1:30 PM on Thursday 23 Oct 2014 (Local Time) from UIAA Reporting Station
Broken Clouds Broken Clouds  
Wind Chill: 34°   Ceiling: 10000
Heat Index: 41°   Visibility: 6mi
Dew Point: 19°   Wind: 13mph
Humidity: 42%   Direction: 260°W
Pressure: 29.83"   Gusts: NA
Location:  56.58°N, 121.48°E
Report Text: UIAA 230430Z 26006MPS 9999 FEW050 BKN100 05/M07 Q1010 NOSIG RMKQFE699 29CLRD70
Loading
Personal Weather Stations






























Interactive Weather Map
Tropical Storm Tracking
New forecast layout! Learn more

10-Day Weather Forecast

Advertisements
Track Severe Weather on mobile